Time;durP1;ratioP1;P1;durP2;ratioP2;P2;SDS_P1;SDS_P2;PMS_P1;PMS_P2;Temp;Humidity;BMP_temperature;BMP_pressure;BME280_temperature;BME280_humidity;BME280_pressure;Samples;Min_cycle;Max_cycle;Signal;HPM_P1;HPM_P2
2022/07/18 00:01:37;;;;;;;8.50;5.20;;;;;;;14.74;87.00;102406.06;4944511;28;20097;-68
2022/07/18 00:04:03;;;;;;;9.27;5.18;;;;;;;14.61;87.86;102398.78;4944573;29;20495;-69
2022/07/18 00:06:28;;;;;;;9.43;5.18;;;;;;;14.79;86.72;102397.75;4942646;28;20078;-68
2022/07/18 00:08:54;;;;;;;12.13;6.03;;;;;;;14.62;87.61;102395.16;4944071;28;20094;-68
2022/07/18 00:11:21;;;;;;;12.38;5.47;;;;;;;14.49;86.76;102397.66;4942037;28;20577;-69
2022/07/18 00:13:46;;;;;;;7.57;4.82;;;;;;;14.39;86.85;102401.75;4943868;28;20161;-69
2022/07/18 00:16:12;;;;;;;12.57;4.75;;;;;;;14.32;87.10;102403.03;4942906;28;20109;-69
2022/07/18 00:18:37;;;;;;;7.70;5.10;;;;;;;14.21;87.51;102404.50;4943156;28;20046;-70
2022/07/18 00:21:03;;;;;;;12.23;5.50;;;;;;;14.14;87.71;102402.22;4943648;28;20169;-71
2022/07/18 00:23:29;;;;;;;10.98;5.53;;;;;;;14.20;88.44;102409.91;4943512;28;20119;-69
2022/07/18 00:25:54;;;;;;;11.02;6.15;;;;;;;14.33;87.59;102404.78;4941550;28;20043;-69
2022/07/18 00:28:20;;;;;;;9.40;5.35;;;;;;;14.35;87.91;102409.09;4943370;28;20054;-69
2022/07/18 00:30:45;;;;;;;11.93;5.45;;;;;;;14.21;88.85;102409.00;4957928;28;20464;-69
2022/07/18 00:33:10;;;;;;;12.68;5.75;;;;;;;14.06;89.57;102415.19;4957725;28;20058;-69
2022/07/18 00:35:36;;;;;;;10.07;5.40;;;;;;;14.33;87.88;102402.09;4943340;29;20067;-69
2022/07/18 00:38:02;;;;;;;10.77;6.28;;;;;;;14.35;87.78;102400.19;4943533;28;20550;-69
2022/07/18 00:40:29;;;;;;;13.43;7.22;;;;;;;14.25;89.04;102397.13;4943310;29;20054;-69
2022/07/18 00:42:54;;;;;;;13.30;5.82;;;;;;;13.90;89.84;102402.53;4942157;28;20038;-69
2022/07/18 00:45:20;;;;;;;7.90;4.90;;;;;;;14.04;89.18;102391.09;4943735;28;20043;-69
2022/07/18 00:47:45;;;;;;;18.35;6.53;;;;;;;14.14;88.58;102394.16;4943516;28;20126;-69
2022/07/18 00:50:11;;;;;;;12.10;6.70;;;;;;;14.25;88.02;102383.72;4943548;28;20562;-69
2022/07/18 00:52:37;;;;;;;15.77;7.35;;;;;;;14.20;88.65;102385.78;4943846;28;20039;-69
2022/07/18 00:55:05;;;;;;;14.40;6.65;;;;;;;14.07;89.68;102382.03;4958246;28;20054;-69
2022/07/18 00:57:30;;;;;;;13.23;7.00;;;;;;;13.91;90.18;102384.66;4944255;28;20122;-69
2022/07/18 01:02:41;;;;;;;13.73;6.95;;;;;;;13.98;90.30;102375.34;4944168;29;20126;-69
2022/07/18 01:05:07;;;;;;;11.48;6.35;;;;;;;13.97;89.65;102376.28;4944129;28;20922;-68
2022/07/18 01:07:37;;;;;;;12.85;7.57;;;;;;;13.93;90.34;102382.75;4948688;28;20449;-67
2022/07/18 01:10:04;;;;;;;12.55;5.82;;;;;;;13.79;89.86;102382.59;4949798;28;20039;-68
2022/07/18 01:12:31;;;;;;;12.15;7.28;;;;;;;13.75;90.15;102381.88;4947720;28;20123;-67
2022/07/18 01:14:57;;;;;;;10.75;5.90;;;;;;;13.83;90.01;102382.38;4947932;28;20047;-68
2022/07/18 01:17:24;;;;;;;11.57;6.32;;;;;;;13.97;89.96;102371.78;4947564;28;20122;-68
2022/07/18 01:19:49;;;;;;;14.32;6.70;;;;;;;13.97;89.92;102373.59;4947702;28;20388;-67
2022/07/18 01:22:18;;;;;;;15.93;7.07;;;;;;;13.90;90.91;102378.41;4948062;29;20074;-68
2022/07/18 01:24:45;;;;;;;13.40;7.90;;;;;;;13.80;90.71;102385.19;4946870;28;20074;-67
2022/07/18 01:27:16;;;;;;;15.95;6.53;;;;;;;13.81;90.75;102378.91;4947117;29;20044;-68
2022/07/18 01:29:42;;;;;;;18.23;7.55;;;;;;;13.94;89.73;102371.06;4963460;28;20047;-68
2022/07/18 01:32:09;;;;;;;13.73;7.63;;;;;;;13.90;90.32;102374.84;4949917;28;20054;-68
2022/07/18 01:34:35;;;;;;;16.10;7.90;;;;;;;13.85;90.39;102374.22;4950951;28;20054;-70
2022/07/18 01:37:01;;;;;;;14.90;7.03;;;;;;;13.85;90.73;102375.09;4948464;28;20702;-68
2022/07/18 01:39:26;;;;;;;15.25;7.35;;;;;;;13.97;89.97;102368.25;4949874;28;20121;-69
2022/07/18 01:42:11;;;;;;;12.73;7.43;;;;;;;13.78;91.56;102372.84;4949834;29;20039;-68
2022/07/18 01:44:38;;;;;;;13.30;6.72;;;;;;;13.95;90.03;102357.56;4950000;29;20043;-68
2022/07/18 01:47:05;;;;;;;17.08;8.18;;;;;;;13.87;90.79;102358.94;4951978;28;20043;-68
2022/07/18 01:49:31;;;;;;;12.73;6.53;;;;;;;13.85;91.03;102363.50;4950712;28;20046;-68
2022/07/18 01:51:58;;;;;;;14.20;7.63;;;;;;;13.59;91.77;102362.19;4952315;28;20212;-69
2022/07/18 01:54:26;;;;;;;17.88;8.50;;;;;;;13.52;91.51;102358.97;4952071;28;20035;-68
2022/07/18 01:56:51;;;;;;;13.63;6.82;;;;;;;13.35;92.21;102362.50;4951984;28;20039;-68
2022/07/18 01:59:17;;;;;;;12.15;6.82;;;;;;;13.26;91.56;102359.44;4966832;28;20047;-68
2022/07/18 02:01:43;;;;;;;18.60;7.30;;;;;;;13.26;91.70;102354.94;4950901;28;20495;-67
2022/07/18 02:04:09;;;;;;;11.48;6.38;;;;;;;13.29;91.48;102356.59;4950523;29;20043;-68
2022/07/18 02:06:34;;;;;;;15.52;7.53;;;;;;;13.20;92.16;102348.06;4952200;28;20067;-68
2022/07/18 02:09:00;;;;;;;14.93;7.25;;;;;;;12.99;94.50;102350.91;4952388;28;20039;-68
2022/07/18 02:11:26;;;;;;;13.02;7.32;;;;;;;13.15;93.06;102351.88;4951361;29;20059;-68
2022/07/18 02:13:51;;;;;;;15.60;7.45;;;;;;;13.28;91.89;102347.69;4949202;28;20041;-68
2022/07/18 02:16:17;;;;;;;12.88;7.13;;;;;;;13.26;92.73;102356.75;4950826;28;20884;-67
2022/07/18 02:18:42;;;;;;;18.73;8.48;;;;;;;13.25;92.41;102345.16;4950709;28;20039;-67
2022/07/18 02:21:08;;;;;;;10.13;6.78;;;;;;;13.23;93.12;102348.88;4947255;29;20602;-68
2022/07/18 02:23:34;;;;;;;13.75;7.07;;;;;;;13.18;93.11;102338.34;4948578;28;20502;-69
2022/07/18 02:26:00;;;;;;;12.35;7.10;;;;;;;13.14;93.46;102334.94;4950148;28;20051;-69
2022/07/18 02:28:26;;;;;;;12.68;7.57;;;;;;;13.10;93.68;102321.78;4950275;28;20050;-70
2022/07/18 02:30:51;;;;;;;13.57;7.20;;;;;;;13.15;93.51;102319.75;4949693;28;20043;-69
2022/07/18 02:33:17;;;;;;;13.98;6.88;;;;;;;13.00;94.47;102332.09;4947766;29;20058;-71
2022/07/18 02:35:43;;;;;;;14.52;6.43;;;;;;;12.91;94.29;102335.25;4948649;28;20150;-69
2022/07/18 02:38:09;;;;;;;10.48;6.25;;;;;;;12.96;92.83;102325.16;4946551;29;20043;-69
2022/07/18 02:40:35;;;;;;;13.07;6.80;;;;;;;12.75;93.20;102323.53;4948589;28;20097;-69
2022/07/18 02:43:00;;;;;;;11.88;6.32;;;;;;;12.54;93.62;102322.75;4947783;29;20042;-69
2022/07/18 02:45:26;;;;;;;16.83;7.20;;;;;;;12.48;94.09;102329.28;4948255;28;20131;-69
2022/07/18 02:47:52;;;;;;;12.32;6.72;;;;;;;12.54;93.73;102338.81;4947343;28;20027;-68
2022/07/18 02:50:18;;;;;;;18.23;7.95;;;;;;;12.62;94.44;102334.84;4949121;28;20053;-69
2022/07/18 02:52:44;;;;;;;12.63;6.10;;;;;;;12.60;94.57;102347.44;4948862;28;20047;-72
2022/07/18 02:55:11;;;;;;;12.38;7.00;;;;;;;12.69;95.12;102336.25;4948696;28;20133;-68
2022/07/18 02:57:36;;;;;;;13.15;8.45;;;;;;;12.64;95.98;102332.94;4931769;29;20202;-69
2022/07/18 03:00:09;;;;;;;13.52;7.40;;;;;;;12.65;96.05;102340.06;4949881;28;20119;-68
2022/07/18 03:02:34;;;;;;;;;;;;;;;12.66;95.57;102336.44;4949122;28;20031;-69
2022/07/18 03:05:00;;;;;;;13.18;7.28;;;;;;;12.43;96.47;102328.63;4949502;29;19929;-69
2022/07/18 03:07:25;;;;;;;11.02;7.25;;;;;;;12.40;95.12;102326.13;4951161;28;20194;-69
2022/07/18 03:09:51;;;;;;;13.10;7.47;;;;;;;12.50;94.51;102332.75;4949558;28;20047;-68
2022/07/18 03:12:17;;;;;;;14.98;7.50;;;;;;;12.34;95.32;102331.72;4949184;28;20703;-69
2022/07/18 03:14:43;;;;;;;24.23;7.35;;;;;;;12.39;95.52;102332.38;4944499;28;20070;-67
2022/07/18 03:17:08;;;;;;;12.23;7.10;;;;;;;12.39;95.58;102337.72;4942760;28;20039;-68
2022/07/18 03:19:34;;;;;;;15.07;7.63;;;;;;;12.35;96.32;102323.66;4942107;28;20082;-69
2022/07/18 03:22:00;;;;;;;11.38;6.97;;;;;;;12.54;95.95;102322.75;4942027;28;20043;-67
2022/07/18 03:24:25;;;;;;;16.92;7.72;;;;;;;12.68;95.54;102321.16;4943365;28;20035;-67
2022/07/18 03:26:51;;;;;;;11.73;6.85;;;;;;;12.40;96.58;102320.75;4942079;29;20542;-69
2022/07/18 03:29:17;;;;;;;15.18;8.13;;;;;;;12.24;96.68;102320.59;4941351;29;20039;-69
2022/07/18 03:31:43;;;;;;;18.15;8.63;;;;;;;12.31;94.91;102321.19;4944331;28;20110;-67
2022/07/18 03:34:08;;;;;;;11.57;6.20;;;;;;;12.31;94.16;102316.72;4941879;28;20043;-69
2022/07/18 03:36:34;;;;;;;13.25;7.93;;;;;;;12.43;94.22;102315.25;4942553;29;20571;-68
2022/07/18 03:38:59;;;;;;;11.45;6.55;;;;;;;12.46;94.40;102311.56;4941914;28;20074;-69
2022/07/18 03:41:25;;;;;;;13.98;6.68;;;;;;;12.46;94.69;102316.94;4942438;28;20691;-69
2022/07/18 03:43:50;;;;;;;12.75;7.10;;;;;;;12.42;95.42;102308.16;4942912;29;20043;-69
2022/07/18 03:46:16;;;;;;;13.57;7.75;;;;;;;12.25;95.71;102310.75;4942818;29;20051;-68
2022/07/18 03:48:41;;;;;;;11.90;6.45;;;;;;;12.35;96.09;102306.69;4957228;28;20043;-69
2022/07/18 03:51:07;;;;;;;14.60;7.75;;;;;;;12.30;95.95;102304.28;4942573;28;20494;-69
2022/07/18 03:53:32;;;;;;;12.80;7.13;;;;;;;12.31;96.10;102306.00;4945562;28;20219;-69
2022/07/18 03:55:58;;;;;;;12.50;6.95;;;;;;;12.49;96.30;102303.38;4946796;28;20038;-69
2022/07/18 03:58:24;;;;;;;16.52;9.38;;;;;;;12.54;96.19;102304.88;4946619;28;20043;-69
2022/07/18 04:00:50;;;;;;;16.00;8.73;;;;;;;12.40;97.55;102307.38;4946418;28;20058;-70
2022/07/18 04:03:17;;;;;;;18.77;7.68;;;;;;;12.50;97.86;102297.97;4945875;29;20098;-70
2022/07/18 04:05:43;;;;;;;18.75;8.13;;;;;;;12.66;98.24;102304.31;4945011;28;20049;-70
2022/07/18 04:08:09;;;;;;;21.98;8.52;;;;;;;12.85;96.04;102298.03;4945036;28;20150;-69
2022/07/18 04:10:34;;;;;;;17.55;8.38;;;;;;;12.62;96.90;102300.03;4945253;29;20051;-70
2022/07/18 04:13:00;;;;;;;18.27;8.43;;;;;;;12.84;96.36;102299.84;4945565;28;20047;-70
2022/07/18 04:15:26;;;;;;;17.00;7.82;;;;;;;12.93;95.84;102306.56;4945299;28;20043;-70
2022/07/18 04:17:52;;;;;;;16.35;8.07;;;;;;;12.96;95.60;102306.44;4945231;28;20047;-70
2022/07/18 04:20:19;;;;;;;13.15;7.68;;;;;;;13.18;94.54;102292.81;4945088;28;20074;-70
2022/07/18 04:22:50;;;;;;;15.70;7.40;;;;;;;13.37;94.39;102292.78;4943676;29;20771;-70
2022/07/18 04:25:17;;;;;;;12.48;7.18;;;;;;;13.36;93.54;102289.22;4944709;29;20081;-69
2022/07/18 04:27:44;;;;;;;12.70;7.03;;;;;;;13.43;93.38;102289.78;4944892;28;20039;-70
2022/07/18 04:30:10;;;;;;;14.73;7.45;;;;;;;13.46;93.05;102274.41;4944281;28;20055;-69
2022/07/18 04:32:37;;;;;;;16.95;7.43;;;;;;;13.33;94.73;102283.16;4944303;28;20061;-70
2022/07/18 04:35:03;;;;;;;22.20;6.57;;;;;;;13.43;94.52;102279.03;4944776;28;20031;-70
2022/07/18 04:37:32;;;;;;;16.92;8.25;;;;;;;13.57;93.14;102284.56;4944716;28;20759;-70
2022/07/18 04:39:58;;;;;;;12.30;6.85;;;;;;;13.68;92.88;102276.81;4944700;28;20102;-70
2022/07/18 04:42:23;;;;;;;12.90;6.90;;;;;;;13.70;91.82;102282.06;4944778;28;20136;-70
2022/07/18 04:44:49;;;;;;;11.63;7.18;;;;;;;13.74;92.69;102284.50;4944786;29;20119;-70
2022/07/18 04:47:14;;;;;;;11.38;6.63;;;;;;;13.82;93.33;102285.94;4942595;28;20043;-70
2022/07/18 04:49:40;;;;;;;13.88;6.85;;;;;;;13.87;94.47;102282.06;4944346;29;20054;-70
2022/07/18 04:52:05;;;;;;;13.30;7.07;;;;;;;14.01;92.77;102275.94;4943755;28;20102;-69
2022/07/18 04:54:30;;;;;;;17.77;7.97;;;;;;;14.28;91.89;102272.69;4943340;28;20047;-70
2022/07/18 04:56:56;;;;;;;17.70;7.30;;;;;;;14.50;89.88;102266.03;4943514;28;20043;-70
2022/07/18 04:59:21;;;;;;;22.25;8.35;;;;;;;14.89;88.13;102270.03;4943504;29;20044;-70
2022/07/18 05:01:47;;;;;;;9.07;6.05;;;;;;;15.22;88.27;102269.03;4941885;28;20043;-70
2022/07/18 05:04:12;;;;;;;15.93;7.60;;;;;;;15.99;85.98;102262.47;4943357;28;20054;-70
2022/07/18 05:06:38;;;;;;;16.42;7.68;;;;;;;15.84;85.98;102263.44;4945495;29;20035;-69
2022/07/18 05:09:04;;;;;;;15.35;7.53;;;;;;;16.28;83.73;102264.19;4943916;28;20151;-70
2022/07/18 05:11:29;;;;;;;14.10;7.32;;;;;;;17.07;80.08;102263.44;4943827;29;20052;-70
2022/07/18 05:13:55;;;;;;;11.85;7.32;;;;;;;16.92;83.00;102253.72;4943674;28;20050;-70
2022/07/18 05:16:20;;;;;;;13.70;7.63;;;;;;;16.95;84.28;102258.88;4958222;28;20085;-70
2022/07/18 05:18:46;;;;;;;17.10;7.72;;;;;;;17.43;81.91;102252.94;4942742;28;20054;-70
2022/07/18 05:21:11;;;;;;;14.10;7.57;;;;;;;17.58;80.71;102250.00;4942729;28;20035;-71
2022/07/18 05:23:37;;;;;;;11.32;7.30;;;;;;;17.46;80.83;102253.56;4940995;29;20047;-68
2022/07/18 05:26:02;;;;;;;16.67;8.02;;;;;;;17.63;84.16;102251.53;4942684;29;20039;-68
2022/07/18 05:28:28;;;;;;;15.18;6.78;;;;;;;18.47;80.21;102248.97;4942946;28;20050;-69
2022/07/18 05:30:54;;;;;;;14.85;7.15;;;;;;;18.95;78.18;102254.44;4943222;28;20042;-69
2022/07/18 05:33:20;;;;;;;14.68;7.13;;;;;;;18.96;78.67;102258.00;4943145;28;20186;-69
2022/07/18 05:35:46;;;;;;;13.90;7.00;;;;;;;18.94;72.93;102255.41;4942669;28;20047;-70
2022/07/18 05:38:14;;;;;;;13.30;6.65;;;;;;;19.05;73.99;102260.84;4941533;29;20043;-69
2022/07/18 05:40:39;;;;;;;16.02;6.68;;;;;;;20.03;68.51;102249.56;4944419;28;20795;-69
2022/07/18 05:43:04;;;;;;;13.30;6.28;;;;;;;20.07;68.18;102251.91;4944220;28;20039;-69
2022/07/18 05:45:30;;;;;;;17.27;6.55;;;;;;;20.15;66.43;102254.00;4940988;28;20109;-68
2022/07/18 05:47:56;;;;;;;13.07;6.70;;;;;;;19.57;69.18;102266.75;4940980;29;20054;-69
2022/07/18 05:50:23;;;;;;;10.27;6.50;;;;;;;19.28;75.85;102269.06;4956785;28;20063;-68
2022/07/18 05:52:48;;;;;;;14.48;7.03;;;;;;;19.33;76.38;102258.75;4942646;28;20043;-68
2022/07/18 05:55:14;;;;;;;10.55;6.72;;;;;;;19.39;76.66;102258.25;4942646;28;20067;-68
2022/07/18 05:57:39;;;;;;;10.98;7.35;;;;;;;19.10;78.42;102255.94;4942501;28;20126;-69
2022/07/18 06:00:08;;;;;;;12.48;6.72;;;;;;;19.29;73.82;102263.50;4940724;29;20047;-69
2022/07/18 06:02:34;;;;;;;17.08;7.47;;;;;;;19.33;74.82;102256.88;4942347;28;20085;-68
2022/07/18 06:05:00;;;;;;;8.68;6.38;;;;;;;19.28;72.42;102263.66;4942113;28;20051;-68
2022/07/18 06:07:25;;;;;;;12.48;6.32;;;;;;;19.07;76.01;102255.31;4942095;28;20051;-68
2022/07/18 06:09:51;;;;;;;13.75;6.72;;;;;;;19.13;75.81;102258.44;4942010;28;20050;-68
2022/07/18 06:12:16;;;;;;;11.75;6.53;;;;;;;19.07;76.87;102249.91;4956184;28;20054;-68
2022/07/18 06:14:42;;;;;;;11.85;7.18;;;;;;;20.05;74.09;102239.50;4941221;28;20050;-69
2022/07/18 06:17:07;;;;;;;10.70;7.05;;;;;;;21.11;65.89;102243.25;4940496;29;20101;-68
2022/07/18 06:19:33;;;;;;;10.20;6.07;;;;;;;21.61;62.82;102231.75;4942141;28;20058;-69
2022/07/18 06:21:59;;;;;;;16.55;7.18;;;;;;;21.50;63.63;102229.13;4941379;28;20051;-68
2022/07/18 06:24:27;;;;;;;10.23;7.20;;;;;;;21.49;64.04;102213.78;4955837;28;20051;-68
2022/07/18 06:26:53;;;;;;;14.48;6.93;;;;;;;21.38;64.58;102215.59;4940070;29;20050;-68
2022/07/18 06:29:18;;;;;;;13.98;6.65;;;;;;;21.50;63.64;102212.81;4939920;29;20047;-69
2022/07/18 06:31:44;;;;;;;8.60;5.82;;;;;;;21.66;61.82;102219.47;4941663;28;20035;-68
2022/07/18 06:34:09;;;;;;;9.73;6.30;;;;;;;21.57;66.89;102219.41;4940062;29;20040;-68
2022/07/18 06:36:34;;;;;;;12.40;5.63;;;;;;;22.52;60.11;102216.31;4941458;29;20050;-68
2022/07/18 06:39:01;;;;;;;10.80;5.78;;;;;;;22.60;60.67;102208.31;4942082;28;20043;-67
2022/07/18 06:41:27;;;;;;;9.57;5.95;;;;;;;22.89;58.42;102202.88;4939959;29;20054;-68
2022/07/18 06:43:55;;;;;;;14.55;6.22;;;;;;;23.13;55.41;102200.56;4942089;29;20364;-68
2022/07/18 06:46:21;;;;;;;14.10;5.35;;;;;;;23.93;53.54;102203.75;4941968;28;20035;-68
2022/07/18 06:48:46;;;;;;;11.98;6.28;;;;;;;23.86;54.24;102197.22;4941884;29;20596;-68
2022/07/18 06:51:12;;;;;;;10.50;5.20;;;;;;;24.57;54.00;102197.34;4941373;28;20046;-70
2022/07/18 06:53:37;;;;;;;11.20;4.65;;;;;;;24.66;51.68;102195.56;4941243;29;20039;-68
2022/07/18 06:56:05;;;;;;;17.17;5.00;;;;;;;24.41;53.09;102194.47;4941166;29;20563;-68
2022/07/18 06:58:30;;;;;;;15.00;4.22;;;;;;;25.30;49.01;102195.25;4941178;29;20111;-67
2022/07/18 07:00:57;;;;;;;15.57;3.30;;;;;;;25.08;37.66;102203.09;4941093;29;20047;-68
2022/07/18 07:03:25;;;;;;;10.23;2.70;;;;;;;25.40;45.52;102202.47;4941325;28;20051;-69
2022/07/18 07:05:50;;;;;;;11.23;3.17;;;;;;;25.26;46.71;102204.78;4941067;28;20553;-69
2022/07/18 07:08:16;;;;;;;11.48;2.85;;;;;;;25.78;47.47;102212.09;4941569;28;20050;-69
2022/07/18 07:10:41;;;;;;;8.18;3.03;;;;;;;26.35;46.75;102199.47;4941082;28;20047;-69
2022/07/18 07:13:07;;;;;;;6.80;2.47;;;;;;;26.27;44.70;102206.81;4941378;28;20096;-69
2022/07/18 07:15:32;;;;;;;11.23;2.90;;;;;;;26.00;44.20;102208.75;4940347;29;20050;-69
2022/07/18 07:17:58;;;;;;;5.75;2.67;;;;;;;26.41;42.70;102199.81;4941790;28;20150;-69
2022/07/18 07:20:24;;;;;;;7.18;2.40;;;;;;;26.66;45.38;102203.47;4941006;28;20050;-69
2022/07/18 07:22:54;;;;;;;5.88;2.17;;;;;;;26.47;42.26;102205.53;4941322;28;20047;-69
2022/07/18 07:25:21;;;;;;;5.57;2.58;;;;;;;26.81;42.70;102202.66;4941156;28;20165;-69
2022/07/18 07:27:47;;;;;;;8.80;2.65;;;;;;;25.91;41.87;102203.47;4945180;28;20142;-69
2022/07/18 07:30:14;;;;;;;4.20;2.47;;;;;;;26.16;42.73;102201.66;4945192;28;20038;-68
2022/07/18 07:32:42;;;;;;;16.98;3.10;;;;;;;25.97;46.16;102197.31;4943410;29;20051;-70
2022/07/18 07:35:11;;;;;;;4.78;2.38;;;;;;;26.48;42.25;102199.03;4943996;29;20044;-69
2022/07/18 07:37:51;;;;;;;5.70;1.85;;;;;;;27.62;41.64;102190.75;4943427;29;20125;-68
2022/07/18 07:40:17;;;;;;;9.68;2.20;;;;;;;27.43;39.84;102195.78;4945239;28;20130;-69
2022/07/18 07:42:43;;;;;;;9.18;2.30;;;;;;;27.59;42.69;102192.97;4943629;29;20054;-68
2022/07/18 07:45:10;;;;;;;6.93;2.10;;;;;;;27.12;46.24;102185.56;4943776;28;20089;-67
2022/07/18 07:47:36;;;;;;;4.63;2.08;;;;;;;27.42;46.40;102185.84;4944753;28;20051;-68
2022/07/18 07:50:04;;;;;;;9.52;2.58;;;;;;;27.67;41.30;102184.72;4943681;29;20682;-67
2022/07/18 07:52:30;;;;;;;6.95;2.10;;;;;;;27.85;41.23;102185.34;4944926;28;20071;-68
2022/07/18 07:54:56;;;;;;;5.35;2.38;;;;;;;27.85;45.03;102187.25;4944797;28;20888;-67
2022/07/18 07:57:21;;;;;;;4.70;2.05;;;;;;;28.07;40.71;102183.72;4945086;28;20138;-67
2022/07/18 07:59:46;;;;;;;7.97;1.85;;;;;;;28.34;39.97;102189.75;4944953;28;20075;-67
2022/07/18 08:02:13;;;;;;;4.40;1.77;;;;;;;28.11;41.97;102185.06;4944612;28;20106;-67
2022/07/18 08:04:38;;;;;;;5.97;2.20;;;;;;;28.81;42.07;102186.81;4943370;29;20043;-68
2022/07/18 08:07:03;;;;;;;7.70;2.20;;;;;;;28.27;40.67;102183.28;4944965;28;20503;-67
2022/07/18 08:09:29;;;;;;;7.22;1.80;;;;;;;29.07;40.31;102182.88;4944535;29;20058;-68
2022/07/18 08:11:55;;;;;;;6.07;2.38;;;;;;;28.23;40.59;102187.41;4942881;28;20070;-68
2022/07/18 08:14:20;;;;;;;4.43;2.05;;;;;;;28.60;42.04;102178.41;4944410;28;20050;-69
2022/07/18 08:16:46;;;;;;;7.20;1.92;;;;;;;29.57;40.00;102181.31;4942895;29;20023;-68
2022/07/18 08:19:11;;;;;;;9.88;3.03;;;;;;;30.23;38.41;102179.44;4944577;29;20053;-68
2022/07/18 08:21:37;;;;;;;8.43;2.22;;;;;;;30.09;37.47;102183.91;4942934;29;20093;-68
2022/07/18 08:24:03;;;;;;;4.07;2.45;;;;;;;29.50;40.52;102186.69;4943355;28;20399;-68
2022/07/18 08:26:28;;;;;;;4.68;2.15;;;;;;;29.63;39.99;102191.56;4944417;28;20039;-68
2022/07/18 08:28:54;;;;;;;3.83;1.70;;;;;;;28.82;37.80;102176.72;4943907;28;21037;-68
2022/07/18 08:31:19;;;;;;;9.13;2.38;;;;;;;29.47;39.85;102180.69;4926271;29;20039;-67
2022/07/18 08:33:45;;;;;;;3.35;1.73;;;;;;;29.37;40.43;102175.50;4944411;29;20042;-67
2022/07/18 08:36:11;;;;;;;5.97;2.10;;;;;;;29.32;40.77;102188.94;4944121;28;20411;-68
2022/07/18 08:38:37;;;;;;;10.70;1.92;;;;;;;28.87;39.37;102177.00;4943576;28;20039;-68
2022/07/18 08:41:03;;;;;;;6.53;2.10;;;;;;;29.46;39.15;102170.75;4944336;28;20039;-68
2022/07/18 08:43:29;;;;;;;3.80;2.00;;;;;;;28.72;40.02;102182.47;4942659;28;20455;-68
2022/07/18 08:45:56;;;;;;;6.15;2.33;;;;;;;29.07;41.59;102167.22;4942561;29;20097;-70
2022/07/18 08:48:25;;;;;;;5.30;2.13;;;;;;;29.34;39.86;102165.72;4944075;28;20043;-68
2022/07/18 08:50:50;;;;;;;6.80;1.77;;;;;;;29.49;38.40;102170.38;4942218;28;20115;-68
2022/07/18 08:53:17;;;;;;;6.00;2.03;;;;;;;30.09;37.13;102156.38;4943803;28;20707;-69
2022/07/18 08:55:44;;;;;;;5.80;2.05;;;;;;;29.89;39.18;102158.91;4943810;28;20480;-68
2022/07/18 08:58:12;;;;;;;7.63;2.10;;;;;;;30.47;42.77;102153.41;4943527;28;20070;-68
2022/07/18 09:00:37;;;;;;;5.47;2.08;;;;;;;30.21;37.07;102162.25;4943632;28;20039;-68
2022/07/18 09:03:04;;;;;;;6.22;1.73;;;;;;;30.37;36.64;102166.66;4943711;28;20403;-68
2022/07/18 09:05:31;;;;;;;5.13;2.38;;;;;;;30.13;36.73;102156.88;4943152;28;20050;-68
2022/07/18 09:08:16;;;;;;;7.25;2.03;;;;;;;29.80;36.87;102154.53;4943241;28;20050;-69
2022/07/18 09:10:58;;;;;;;6.30;2.33;;;;;;;30.22;36.81;102163.94;4942670;28;20061;-69
2022/07/18 09:13:34;;;;;;;6.65;2.30;;;;;;;29.62;36.38;102174.22;4943031;28;20040;-69
2022/07/18 09:16:07;;;;;;;7.18;2.03;;;;;;;29.87;38.22;102166.50;4943757;28;20058;-68
2022/07/18 09:18:39;;;;;;;3.90;1.85;;;;;;;29.91;37.72;102167.81;4944171;28;20102;-68
2022/07/18 09:21:17;;;;;;;5.50;2.08;;;;;;;30.18;35.88;102171.78;4942452;29;20043;-68
2022/07/18 09:23:45;;;;;;;6.55;2.35;;;;;;;29.85;35.66;102168.56;4943749;28;20102;-69
2022/07/18 09:26:11;;;;;;;2.58;1.70;;;;;;;30.30;35.38;102172.09;4943679;28;20054;-68
2022/07/18 09:28:53;;;;;;;8.35;1.83;;;;;;;29.96;35.27;102169.13;4943413;28;20042;-70
2022/07/18 09:31:19;;;;;;;;;;;;;;;29.67;33.93;102168.13;4943480;28;20051;-69
2022/07/18 09:34:00;;;;;;;6.78;1.90;;;;;;;30.09;35.03;102167.38;4942757;28;19918;-69
2022/07/18 09:36:27;;;;;;;5.78;1.85;;;;;;;29.92;36.02;102165.91;4942683;28;20054;-69
2022/07/18 09:38:53;;;;;;;4.75;1.88;;;;;;;30.28;36.41;102167.84;4942848;28;20039;-69
2022/07/18 09:41:26;;;;;;;5.70;2.15;;;;;;;29.90;33.77;102162.50;4926007;29;20039;-69
2022/07/18 09:43:52;;;;;;;4.30;1.83;;;;;;;29.34;33.92;102167.63;4942383;28;20109;-69
2022/07/18 09:46:18;;;;;;;6.15;1.85;;;;;;;29.65;34.03;102161.97;4945016;28;20046;-69
2022/07/18 09:48:44;;;;;;;4.50;2.10;;;;;;;30.03;33.33;102151.66;4942553;28;20074;-68
2022/07/18 09:51:10;;;;;;;11.63;2.60;;;;;;;30.49;32.49;102156.00;4941914;29;20043;-69
2022/07/18 09:53:41;;;;;;;6.85;2.00;;;;;;;30.54;34.04;102157.09;4942774;28;20118;-68
2022/07/18 09:56:08;;;;;;;3.25;1.58;;;;;;;30.51;32.80;102151.13;4941109;28;20063;-68
2022/07/18 09:58:40;;;;;;;5.82;1.88;;;;;;;30.58;33.54;102157.56;4942955;28;20090;-68
2022/07/18 10:01:07;;;;;;;6.05;1.77;;;;;;;30.37;31.23;102144.63;4941225;29;20048;-68
2022/07/18 10:03:33;;;;;;;7.25;1.42;;;;;;;30.95;32.52;102148.16;4942554;28;20079;-68
2022/07/18 10:06:00;;;;;;;5.55;2.80;;;;;;;30.68;31.48;102147.91;4941519;29;20138;-68
2022/07/18 10:08:28;;;;;;;4.63;1.73;;;;;;;30.64;31.17;102146.59;4943052;28;20451;-69
2022/07/18 10:10:56;;;;;;;6.32;1.67;;;;;;;31.02;30.16;102151.78;4942344;28;20504;-68
2022/07/18 10:13:23;;;;;;;5.25;1.58;;;;;;;31.15;31.48;102146.38;4942871;28;20042;-70
2022/07/18 10:15:50;;;;;;;6.22;1.60;;;;;;;31.47;29.89;102144.06;4942498;28;20054;-68
2022/07/18 10:18:21;;;;;;;4.05;2.03;;;;;;;31.29;33.90;102141.00;4943155;28;20113;-68
2022/07/18 10:20:54;;;;;;;8.10;1.67;;;;;;;31.06;30.68;102142.09;4942743;28;20054;-69
2022/07/18 10:23:22;;;;;;;3.60;1.60;;;;;;;30.00;32.06;102138.28;4940963;28;20051;-69
2022/07/18 10:26:27;;;;;;;5.13;1.73;;;;;;;30.31;29.77;102145.41;4942752;28;20074;-68
2022/07/18 10:28:56;;;;;;;4.00;1.83;;;;;;;30.24;30.11;102148.13;4917176;29;20048;-69
2022/07/18 10:31:23;;;;;;;3.85;1.60;;;;;;;30.02;32.75;102143.59;4901412;29;20047;-69
2022/07/18 10:33:50;;;;;;;5.93;2.17;;;;;;;30.46;31.56;102140.69;4901471;29;20048;-69
2022/07/18 10:36:17;;;;;;;4.03;1.65;;;;;;;30.54;30.44;102143.34;4901212;29;20063;-69
2022/07/18 10:39:03;;;;;;;4.50;1.70;;;;;;;30.33;32.35;102137.84;4901519;29;20076;-69
2022/07/18 10:41:28;;;;;;;3.80;1.92;;;;;;;31.17;33.36;102136.00;4901463;29;20055;-69
2022/07/18 10:43:54;;;;;;;6.47;1.83;;;;;;;31.17;32.31;102137.91;4901503;29;20048;-69
2022/07/18 10:46:20;;;;;;;5.88;1.80;;;;;;;31.69;30.71;102128.28;4901081;29;20067;-68
2022/07/18 10:48:53;;;;;;;4.22;1.50;;;;;;;31.79;28.93;102117.69;4901139;29;20058;-69
2022/07/18 10:51:20;;;;;;;5.60;1.60;;;;;;;31.55;31.59;102132.88;4885475;29;20052;-69
2022/07/18 10:53:54;;;;;;;6.78;1.63;;;;;;;31.78;27.26;102124.28;4916633;29;20112;-69
2022/07/18 10:56:39;;;;;;;4.55;1.60;;;;;;;31.77;29.54;102128.06;4916789;29;20092;-69
2022/07/18 10:59:20;;;;;;;6.57;2.15;;;;;;;31.30;28.62;102120.66;4908322;29;20050;-69
2022/07/18 11:01:51;;;;;;;4.20;1.40;;;;;;;31.03;29.38;102128.72;4942196;28;20047;-69
2022/07/18 11:04:26;;;;;;;6.43;1.88;;;;;;;30.04;28.38;102127.75;4956662;28;20047;-69
2022/07/18 11:07:06;;;;;;;3.03;1.27;;;;;;;29.86;29.34;102125.41;4956478;28;20039;-69
2022/07/18 11:09:36;;;;;;;2.15;1.48;;;;;;;29.99;30.34;102125.59;4941710;28;20035;-69
2022/07/18 11:12:31;;;;;;;3.92;1.60;;;;;;;31.05;30.37;102123.84;4941182;28;20058;-68
2022/07/18 11:14:59;;;;;;;3.45;1.48;;;;;;;31.39;28.58;102122.19;4939410;29;20518;-68
2022/07/18 11:17:53;;;;;;;2.63;1.58;;;;;;;31.52;29.14;102119.47;4941506;28;20054;-71
2022/07/18 11:20:27;;;;;;;5.03;1.50;;;;;;;31.60;28.43;102115.72;4942029;28;20050;-68
2022/07/18 11:22:55;;;;;;;5.72;1.40;;;;;;;31.77;27.84;102110.66;4939602;29;20043;-69
2022/07/18 11:25:24;;;;;;;2.58;1.50;;;;;;;32.00;28.68;102115.88;4941278;28;20047;-69